Terminal Aerodrome Forecast
Issued by NWS

Home | Current Version | Previous Version | Text Only | Print | Product List | Glossary On
Versions: 1 2 3 4 5 6 7 8 9 10 11 12 13 14 15
000
FTUS43 KICT 052345
TAFHUT
TAF
KHUT 052345Z 0600/0624 14004KT P6SM SKC
     FM061400 18009KT P6SM SCT130
     FM061700 18017G25KT P6SM SCT130 BKN300=

USA.gov is the U.S. government's official web portal to all federal, state and local government web resources and services.